Rechercher aéroport 
image banner adimage banner ad
image banner ad

SVOT - Santa Maria La Tigra

Situé à Apure, Venezuela

ICAO - SVOT, IATA -

Données fournies par Airmate  

Information générale

Coordonnées: N6°30'0" W67°8'0"
Élévation : 390 feet MSL.
 
Voir autres Aéroports à Barinas

Données opérationnelles

Accessible au public
Heure actuelle UTC:
Heure actuelle locale:
Météo à : SKPC - Puerto Carreno-German Olano ( 53 km )
METAR: SKPC 261200Z 00000KT CAVOK 27/24 A2989
Voir NOTAMs / SUP AIP / TFR affectant cet aéroport [VIEW]
Fréquences de communication: [VIEW]

Pistes:

Identifiant RWYQFULongueur (ft)Largeur (ft)SurfaceLDA (ft)
0400
2200

Coordonnées de l'aéroport

Adresse: Apure Venezuela

Vue satellite de SVOT